Time;durP1;ratioP1;P1;durP2;ratioP2;P2;SDS_P1;SDS_P2;PMS_P1;PMS_P2;Temp;Humidity;BMP_temperature;BMP_pressure;BME280_temperature;BME280_humidity;BME280_pressure;Samples;Min_cycle;Max_cycle;Signal;HPM_P1;HPM_P2
2021/03/13 00:01:19;;;;;;;3.80;1.77;;;;;;;4.64;74.99;95842.38;5062435;28;20041;-73
2021/03/13 00:03:45;;;;;;;5.93;2.70;;;;;;;4.65;75.23;95846.56;5074728;28;20036;-73
2021/03/13 00:06:12;;;;;;;4.03;2.10;;;;;;;4.63;75.35;95843.38;5076154;28;20039;-74
2021/03/13 00:08:39;;;;;;;5.07;1.35;;;;;;;4.63;75.64;95840.78;5075983;28;20044;-73
2021/03/13 00:11:09;;;;;;;5.28;1.60;;;;;;;4.60;75.71;95835.97;5076045;28;20029;-74
2021/03/13 00:13:37;;;;;;;3.00;1.00;;;;;;;4.59;75.97;95838.75;5076257;28;20040;-73
2021/03/13 00:16:05;;;;;;;4.03;1.83;;;;;;;4.58;76.05;95847.56;5075805;28;20040;-74
2021/03/13 00:18:32;;;;;;;1.50;0.82;;;;;;;4.56;76.86;95841.75;5076284;28;20032;-73
2021/03/13 00:20:58;;;;;;;3.67;1.13;;;;;;;4.57;76.77;95840.75;5075821;28;20044;-73
2021/03/13 00:23:25;;;;;;;4.07;1.02;;;;;;;4.60;76.95;95840.34;5075963;28;20048;-73
2021/03/13 00:25:52;;;;;;;2.67;1.05;;;;;;;4.62;76.79;95844.38;5074620;28;20043;-73
2021/03/13 00:28:18;;;;;;;1.38;1.02;;;;;;;4.65;77.08;95846.56;5075466;28;20044;-74
2021/03/13 00:30:46;;;;;;;1.85;0.82;;;;;;;4.67;77.15;95854.97;5076390;28;20032;-73
2021/03/13 00:33:20;;;;;;;1.85;1.00;;;;;;;4.71;77.87;95850.19;5075763;28;20408;-73
2021/03/13 00:35:49;;;;;;;2.92;1.20;;;;;;;4.73;77.09;95848.19;5075463;28;20036;-73
2021/03/13 00:38:16;;;;;;;4.82;1.30;;;;;;;4.76;77.59;95847.00;5074997;28;20048;-74
2021/03/13 00:40:45;;;;;;;1.42;1.00;;;;;;;4.78;77.55;95845.00;5075495;28;20047;-74
2021/03/13 00:43:12;;;;;;;3.15;1.15;;;;;;;4.82;77.57;95835.84;5075383;28;20033;-73
2021/03/13 00:45:39;;;;;;;3.33;1.17;;;;;;;4.87;77.99;95839.44;5075316;28;20028;-73
2021/03/13 00:48:06;;;;;;;1.60;1.10;;;;;;;4.90;77.89;95842.66;5075298;28;20037;-73
2021/03/13 00:50:34;;;;;;;2.30;0.90;;;;;;;4.90;77.83;95848.66;5075166;28;20043;-74
2021/03/13 00:53:01;;;;;;;2.47;1.00;;;;;;;4.87;77.61;95846.41;5075360;28;20033;-73
2021/03/13 00:55:27;;;;;;;1.35;0.88;;;;;;;4.90;77.89;95861.63;5075064;28;20040;-73
2021/03/13 00:57:54;;;;;;;2.65;1.02;;;;;;;4.88;78.07;95872.22;5075338;28;20400;-73
2021/03/13 01:00:24;;;;;;;3.58;1.02;;;;;;;4.78;77.99;95856.19;5075692;28;20051;-73
2021/03/13 01:02:50;;;;;;;1.88;1.08;;;;;;;4.65;77.78;95853.56;5075051;28;20031;-72
2021/03/13 01:05:17;;;;;;;3.50;1.30;;;;;;;4.60;78.43;95853.34;5074854;28;20139;-73
2021/03/13 01:07:43;;;;;;;3.63;0.93;;;;;;;4.58;78.74;95843.16;5074883;28;20492;-74
2021/03/13 01:10:10;;;;;;;2.83;0.88;;;;;;;4.53;78.53;95842.94;5064774;28;20500;-73
2021/03/13 01:12:36;;;;;;;1.77;0.90;;;;;;;4.46;79.05;95832.53;5074888;28;20390;-73
2021/03/13 01:15:07;;;;;;;2.08;0.80;;;;;;;4.42;79.08;95822.72;5073968;28;20032;-73
2021/03/13 01:17:33;;;;;;;0.85;0.73;;;;;;;4.45;79.09;95811.94;5075318;28;20043;-74
2021/03/13 01:20:00;;;;;;;3.15;0.90;;;;;;;4.42;79.22;95797.56;5074610;28;20037;-74
2021/03/13 01:22:26;;;;;;;1.90;0.95;;;;;;;4.40;79.09;95796.94;5074982;28;20048;-73
2021/03/13 01:24:53;;;;;;;1.23;0.90;;;;;;;4.42;79.23;95802.75;5075383;28;20048;-73
2021/03/13 01:27:19;;;;;;;1.27;0.70;;;;;;;4.39;79.53;95792.78;5074792;28;20036;-73
2021/03/13 01:29:45;;;;;;;2.75;1.00;;;;;;;4.36;79.65;95787.97;5074743;28;20457;-73
2021/03/13 01:32:11;;;;;;;4.10;1.05;;;;;;;4.36;79.62;95782.75;5074454;28;20052;-73
2021/03/13 01:34:37;;;;;;;2.10;1.00;;;;;;;4.36;79.88;95776.78;5074254;28;20041;-73
2021/03/13 01:37:05;;;;;;;4.38;1.30;;;;;;;4.33;80.01;95770.19;5074447;28;20036;-73
2021/03/13 01:39:31;;;;;;;2.10;0.95;;;;;;;4.31;79.86;95766.19;5074404;28;20043;-73
2021/03/13 01:41:57;;;;;;;2.97;1.00;;;;;;;4.29;79.94;95765.59;5074463;28;20448;-73
2021/03/13 01:44:23;;;;;;;3.22;1.30;;;;;;;4.26;80.00;95766.75;5074210;28;20041;-74
2021/03/13 01:46:50;;;;;;;3.10;1.00;;;;;;;4.24;80.23;95761.78;5074103;28;20032;-73
2021/03/13 01:49:28;;;;;;;4.30;1.20;;;;;;;4.18;81.41;95749.56;5074120;28;20053;-74
2021/03/13 01:51:55;;;;;;;4.60;1.50;;;;;;;4.16;80.79;95750.75;5074089;28;20394;-73
2021/03/13 01:54:21;;;;;;;5.93;2.08;;;;;;;4.14;80.97;95745.78;5073918;28;20473;-73
2021/03/13 01:56:51;;;;;;;6.07;1.52;;;;;;;4.16;81.53;95741.19;5074174;28;20032;-74
2021/03/13 01:59:19;;;;;;;4.72;1.30;;;;;;;4.18;81.60;95731.41;5062805;28;20044;-73
2021/03/13 02:01:47;;;;;;;8.82;2.28;;;;;;;4.19;81.50;95727.00;5073302;28;20457;-73
2021/03/13 02:04:14;;;;;;;8.23;1.67;;;;;;;4.20;81.37;95726.84;5073888;28;20055;-73
2021/03/13 02:06:51;;;;;;;3.72;1.30;;;;;;;4.19;81.41;95722.63;5073924;28;20044;-73
2021/03/13 02:09:30;;;;;;;6.57;1.70;;;;;;;4.21;81.95;95720.63;5073724;28;20044;-73
2021/03/13 02:12:07;;;;;;;7.40;1.48;;;;;;;4.20;81.53;95713.84;5073675;28;20035;-73
2021/03/13 02:15:00;;;;;;;5.43;1.40;;;;;;;4.22;81.74;95705.84;5073618;28;20397;-74
2021/03/13 02:17:48;;;;;;;4.35;1.10;;;;;;;4.25;81.81;95703.69;5073717;28;20047;-73
2021/03/13 02:20:34;;;;;;;5.97;1.77;;;;;;;4.27;80.94;95701.69;5072663;28;20052;-73
2021/03/13 02:23:02;;;;;;;4.03;1.60;;;;;;;4.29;81.01;95706.69;5060267;28;20047;-73
2021/03/13 02:25:57;;;;;;;7.88;1.45;;;;;;;4.30;81.11;95692.69;5073461;28;20489;-74
2021/03/13 02:28:47;;;;;;;4.97;1.23;;;;;;;4.31;80.78;95699.50;5073671;28;20032;-73
2021/03/13 02:31:15;;;;;;;3.22;1.50;;;;;;;4.32;80.60;95698.50;5073341;28;20032;-73
2021/03/13 02:33:43;;;;;;;3.92;1.20;;;;;;;4.35;80.62;95700.72;5073242;28;20035;-73
2021/03/13 02:36:13;;;;;;;6.70;1.30;;;;;;;4.37;80.94;95684.94;5072479;28;20037;-73
2021/03/13 02:38:45;;;;;;;5.50;1.27;;;;;;;4.41;80.55;95686.13;5073427;28;20036;-75
2021/03/13 02:41:17;;;;;;;6.10;1.05;;;;;;;4.43;80.49;95671.97;5073478;28;20043;-73
2021/03/13 02:43:48;;;;;;;7.25;1.50;;;;;;;4.47;80.14;95675.78;5073638;28;20365;-73
2021/03/13 02:46:19;;;;;;;6.93;1.52;;;;;;;4.51;80.24;95677.97;5073475;28;20040;-73
2021/03/13 02:48:50;;;;;;;5.50;1.42;;;;;;;4.52;80.15;95676.97;5072946;28;20040;-73
2021/03/13 02:51:19;;;;;;;3.97;1.58;;;;;;;4.51;80.01;95665.78;5073225;28;20043;-73
2021/03/13 02:53:46;;;;;;;4.15;1.20;;;;;;;4.54;79.85;95667.19;5073072;28;20024;-74
2021/03/13 02:56:19;;;;;;;7.97;1.65;;;;;;;4.52;79.95;95662.19;5073201;28;20380;-73
2021/03/13 02:58:49;;;;;;;3.33;1.45;;;;;;;4.55;79.87;95661.00;5073603;28;20032;-73
2021/03/13 03:01:17;;;;;;;2.38;1.40;;;;;;;4.55;79.92;95661.78;5073029;28;20040;-73
2021/03/13 03:03:45;;;;;;;4.60;1.30;;;;;;;4.55;80.04;95658.38;5073333;28;20052;-73
2021/03/13 03:06:12;;;;;;;5.10;1.30;;;;;;;4.55;79.72;95656.59;5072828;28;20398;-73
2021/03/13 03:08:40;;;;;;;4.50;1.55;;;;;;;4.54;79.70;95652.41;5073508;28;20103;-73
2021/03/13 03:11:08;;;;;;;5.60;1.45;;;;;;;4.52;79.73;95640.63;5073365;28;20044;-73
2021/03/13 03:13:34;;;;;;;5.60;1.63;;;;;;;4.53;79.72;95643.00;5072860;28;20040;-73
2021/03/13 03:16:04;;;;;;;4.25;1.17;;;;;;;4.55;79.62;95640.22;5072942;28;20033;-73
2021/03/13 03:18:31;;;;;;;6.00;1.23;;;;;;;4.58;79.59;95635.44;5072810;28;20044;-73
2021/03/13 03:20:59;;;;;;;4.55;1.35;;;;;;;4.61;79.68;95634.22;5072551;28;20504;-73
2021/03/13 03:23:26;;;;;;;6.90;1.58;;;;;;;4.64;79.74;95628.63;5072230;28;20048;-73
2021/03/13 03:25:56;;;;;;;4.22;1.20;;;;;;;4.65;79.23;95630.22;5072807;28;20049;-73
2021/03/13 03:28:25;;;;;;;4.05;1.20;;;;;;;4.64;79.50;95631.22;5072859;28;20074;-73
2021/03/13 03:30:54;;;;;;;4.53;1.30;;;;;;;4.66;79.42;95626.63;5072804;28;20033;-73
2021/03/13 03:33:21;;;;;;;3.28;1.05;;;;;;;4.65;79.25;95628.44;5072375;28;20041;-73
2021/03/13 03:35:47;;;;;;;3.53;1.45;;;;;;;4.67;79.35;95625.63;5072636;28;20040;-74
2021/03/13 03:38:14;;;;;;;3.25;1.02;;;;;;;4.68;79.27;95617.66;5073687;28;20044;-73
2021/03/13 03:40:41;;;;;;;2.63;1.15;;;;;;;4.72;79.19;95625.03;5077118;28;20043;-73
2021/03/13 03:43:19;;;;;;;2.83;1.05;;;;;;;4.74;79.13;95620.44;5076586;28;20039;-73
2021/03/13 03:45:51;;;;;;;3.42;1.80;;;;;;;4.77;79.00;95623.44;5076155;28;20040;-74
2021/03/13 03:48:20;;;;;;;6.63;1.00;;;;;;;4.78;79.22;95617.22;5076578;28;20040;-73
2021/03/13 03:50:47;;;;;;;3.50;1.33;;;;;;;4.79;79.23;95608.44;5076282;28;20033;-73
2021/03/13 03:53:18;;;;;;;4.47;1.05;;;;;;;4.81;79.32;95621.25;5076716;28;20511;-73
2021/03/13 03:55:48;;;;;;;2.40;1.10;;;;;;;4.80;79.26;95614.44;5076350;28;20050;-74
2021/03/13 03:58:21;;;;;;;4.00;1.13;;;;;;;4.82;78.89;95602.84;5076114;28;20024;-74
2021/03/13 04:00:49;;;;;;;1.70;1.10;;;;;;;4.84;78.96;95611.22;5076290;28;20036;-73
2021/03/13 04:03:16;;;;;;;3.75;1.00;;;;;;;4.85;79.14;95601.63;5076040;28;20036;-73
2021/03/13 04:05:43;;;;;;;2.70;0.93;;;;;;;4.86;79.02;95604.03;5076572;28;20396;-73
2021/03/13 04:08:15;;;;;;;4.03;0.90;;;;;;;4.87;79.23;95604.81;5075924;28;20389;-73
2021/03/13 04:10:47;;;;;;;3.22;1.33;;;;;;;4.87;79.15;95603.03;5076150;28;20033;-73
2021/03/13 04:13:16;;;;;;;4.10;1.02;;;;;;;4.88;79.30;95599.44;5059809;28;20459;-73
2021/03/13 04:15:44;;;;;;;1.95;0.80;;;;;;;4.90;78.91;95603.63;5075921;28;20029;-73
2021/03/13 04:18:11;;;;;;;4.28;1.20;;;;;;;4.91;78.77;95603.41;5076072;28;20037;-73
2021/03/13 04:20:39;;;;;;;3.58;1.48;;;;;;;4.93;78.67;95613.63;5075607;28;20036;-74
2021/03/13 04:23:08;;;;;;;5.35;1.02;;;;;;;4.93;78.63;95609.22;5076189;28;20052;-73
2021/03/13 04:25:36;;;;;;;2.15;0.65;;;;;;;4.97;78.31;95605.22;5075300;28;20044;-73
2021/03/13 04:28:03;;;;;;;7.43;1.35;;;;;;;4.99;78.02;95608.41;5075969;28;20036;-74
2021/03/13 04:30:30;;;;;;;2.20;0.88;;;;;;;5.03;77.90;95601.00;5066854;28;20044;-73
2021/03/13 04:32:58;;;;;;;2.78;1.35;;;;;;;5.04;78.11;95595.63;5075762;28;20032;-74
2021/03/13 04:35:27;;;;;;;2.83;0.80;;;;;;;5.04;77.84;95600.81;5075388;28;20111;-73
2021/03/13 04:37:55;;;;;;;2.67;0.82;;;;;;;5.05;78.00;95596.41;5075427;28;20028;-74
2021/03/13 04:40:23;;;;;;;4.07;0.82;;;;;;;5.03;77.91;95595.81;5075422;28;20032;-73
2021/03/13 04:42:50;;;;;;;2.28;0.88;;;;;;;5.02;77.83;95589.03;5075609;28;20048;-75
2021/03/13 04:45:17;;;;;;;2.30;1.05;;;;;;;5.04;77.67;95590.41;5075865;28;20051;-73
2021/03/13 04:47:46;;;;;;;3.95;0.70;;;;;;;5.04;77.57;95592.19;5075814;28;20036;-73
2021/03/13 04:50:15;;;;;;;2.45;0.70;;;;;;;5.06;77.51;95598.81;5075202;28;20136;-74
2021/03/13 04:52:41;;;;;;;3.45;0.90;;;;;;;5.08;77.18;95583.00;5075548;28;20044;-73
2021/03/13 04:55:08;;;;;;;3.22;0.73;;;;;;;5.12;77.34;95586.00;5075297;28;20033;-74
2021/03/13 04:57:35;;;;;;;5.28;0.90;;;;;;;5.13;77.27;95585.78;5075678;28;20106;-73
2021/03/13 05:00:05;;;;;;;4.55;1.00;;;;;;;5.13;76.76;95585.78;5075507;28;20038;-73
2021/03/13 05:02:31;;;;;;;1.73;0.50;;;;;;;5.15;76.53;95589.00;5074982;28;20396;-73
2021/03/13 05:04:57;;;;;;;2.50;0.80;;;;;;;5.17;76.45;95579.19;5074954;28;20036;-74
2021/03/13 05:07:23;;;;;;;2.42;1.00;;;;;;;5.21;76.49;95582.19;5074734;28;20037;-74
2021/03/13 05:09:49;;;;;;;1.75;0.80;;;;;;;5.22;76.26;95581.16;5074867;28;20048;-73
2021/03/13 05:12:16;;;;;;;2.45;0.90;;;;;;;5.25;76.13;95580.75;5074838;28;20036;-74
2021/03/13 05:14:42;;;;;;;3.13;0.70;;;;;;;5.24;76.12;95585.16;5075135;28;20037;-73
2021/03/13 05:17:09;;;;;;;3.83;0.90;;;;;;;5.23;75.71;95570.56;5074883;28;20040;-73
2021/03/13 05:19:35;;;;;;;2.83;0.70;;;;;;;5.23;75.81;95564.56;5074937;28;20400;-74
2021/03/13 05:22:01;;;;;;;2.83;1.17;;;;;;;5.23;75.81;95565.38;5074461;28;20056;-73
2021/03/13 05:24:28;;;;;;;2.42;0.80;;;;;;;5.24;75.51;95566.16;5074240;28;20118;-73
2021/03/13 05:26:54;;;;;;;4.93;1.35;;;;;;;5.24;75.69;95559.16;5074912;28;20052;-74
2021/03/13 05:29:20;;;;;;;3.22;1.10;;;;;;;5.26;75.58;95564.16;5074681;28;20052;-73
2021/03/13 05:31:47;;;;;;;3.58;0.80;;;;;;;5.26;75.60;95561.56;5074451;28;20049;-74
2021/03/13 05:34:14;;;;;;;2.72;1.35;;;;;;;5.26;75.31;95559.75;5074578;28;20056;-74
2021/03/13 05:36:40;;;;;;;2.25;1.00;;;;;;;5.29;75.17;95558.53;5074468;28;20051;-73
2021/03/13 05:39:06;;;;;;;1.90;0.90;;;;;;;5.30;75.05;95557.53;5074396;28;20123;-73
2021/03/13 05:41:36;;;;;;;2.40;1.42;;;;;;;5.33;74.43;95556.31;5074496;28;20044;-73
2021/03/13 05:44:04;;;;;;;5.95;1.17;;;;;;;5.34;74.33;95553.53;5074285;28;20037;-73
2021/03/13 05:46:36;;;;;;;3.90;0.98;;;;;;;5.35;74.48;95557.72;5074115;28;20033;-73
2021/03/13 05:49:06;;;;;;;5.03;1.60;;;;;;;5.37;74.27;95544.50;5073938;28;20107;-74
2021/03/13 05:51:37;;;;;;;2.47;1.42;;;;;;;5.36;73.75;95533.31;5074431;28;20044;-74
2021/03/13 05:54:06;;;;;;;8.88;1.30;;;;;;;5.37;73.99;95529.69;5074439;28;20412;-74
2021/03/13 05:56:33;;;;;;;3.20;1.17;;;;;;;5.38;74.17;95536.50;5074145;28;20040;-74
2021/03/13 05:59:02;;;;;;;3.10;1.05;;;;;;;5.41;73.95;95532.69;5074209;28;20553;-74
2021/03/13 06:01:29;;;;;;;3.00;0.82;;;;;;;5.43;73.82;95515.09;5073549;28;20044;-74
2021/03/13 06:03:56;;;;;;;5.88;1.33;;;;;;;5.44;73.78;95520.09;5073976;28;20064;-74
2021/03/13 06:06:24;;;;;;;6.00;1.52;;;;;;;5.46;73.52;95523.28;5074118;28;20040;-74
2021/03/13 06:08:52;;;;;;;2.70;0.80;;;;;;;5.46;72.76;95512.88;5073832;28;20043;-73
2021/03/13 06:11:20;;;;;;;5.15;1.27;;;;;;;5.49;73.11;95517.66;5072615;28;20103;-74
2021/03/13 06:13:47;;;;;;;5.07;1.23;;;;;;;5.52;73.18;95513.03;5073696;28;20374;-74
2021/03/13 06:16:14;;;;;;;2.42;1.10;;;;;;;5.53;72.95;95517.25;5073562;28;20357;-74
2021/03/13 06:19:00;;;;;;;6.97;1.40;;;;;;;5.55;70.96;95508.22;5073335;28;20087;-74
2021/03/13 06:21:37;;;;;;;4.35;1.00;;;;;;;5.56;70.96;95501.22;5060099;28;20044;-73
2021/03/13 06:24:23;;;;;;;5.05;1.42;;;;;;;5.57;70.98;95501.00;5073542;28;20056;-75
2021/03/13 06:27:00;;;;;;;4.70;1.20;;;;;;;5.57;71.51;95482.00;5073397;28;20036;-73
2021/03/13 06:29:30;;;;;;;6.63;1.88;;;;;;;5.58;71.90;95486.19;5073694;28;20048;-74
2021/03/13 06:32:11;;;;;;;2.75;0.95;;;;;;;5.60;70.71;95476.38;5073726;28;20043;-74
2021/03/13 06:34:38;;;;;;;4.75;1.17;;;;;;;5.65;71.89;95476.56;5073444;28;20044;-74
2021/03/13 06:37:24;;;;;;;3.38;1.45;;;;;;;5.72;69.65;95468.72;5073481;28;20389;-73
2021/03/13 06:39:55;;;;;;;10.57;1.20;;;;;;;5.73;70.01;95467.69;5073626;28;20491;-74
2021/03/13 06:42:29;;;;;;;3.35;1.50;;;;;;;5.76;70.87;95468.06;5073624;28;20037;-73
2021/03/13 06:45:00;;;;;;;2.60;1.00;;;;;;;5.78;70.05;95460.84;5059880;28;20028;-74
2021/03/13 06:47:33;;;;;;;4.95;1.17;;;;;;;5.81;69.56;95465.63;5073543;28;20033;-73
2021/03/13 06:50:19;;;;;;;3.38;1.30;;;;;;;5.82;69.73;95456.81;5073014;28;20461;-73
2021/03/13 06:52:56;;;;;;;3.38;0.95;;;;;;;5.85;69.03;95468.59;5073483;28;20039;-74
2021/03/13 06:55:25;;;;;;;6.30;1.05;;;;;;;5.86;69.03;95471.00;5073057;28;20055;-74
2021/03/13 06:58:05;;;;;;;3.70;0.90;;;;;;;5.90;68.72;95455.75;5073503;28;20413;-74
2021/03/13 07:00:33;;;;;;;3.95;1.10;;;;;;;5.92;69.77;95448.50;5073284;28;20028;-74
2021/03/13 07:03:13;;;;;;;3.20;1.15;;;;;;;5.94;68.00;95437.91;5073059;28;20045;-74
2021/03/13 07:05:44;;;;;;;5.03;1.00;;;;;;;5.96;68.88;95443.72;5073248;28;20043;-74
2021/03/13 07:08:27;;;;;;;2.08;1.08;;;;;;;5.99;66.76;95422.50;5073408;28;20040;-74
2021/03/13 07:11:15;;;;;;;4.63;0.95;;;;;;;6.06;66.91;95426.59;5072720;28;20438;-74
2021/03/13 07:13:48;;;;;;;2.22;0.90;;;;;;;6.11;67.78;95418.19;5075214;28;20036;-74
2021/03/13 07:16:37;;;;;;;4.60;0.93;;;;;;;6.15;65.80;95408.13;5077016;28;20035;-74
2021/03/13 07:19:03;;;;;;;3.72;0.90;;;;;;;6.19;68.34;95414.50;5066550;28;20049;-74
2021/03/13 07:21:30;;;;;;;1.63;0.60;;;;;;;6.22;68.27;95408.88;5076819;28;20048;-74
2021/03/13 07:24:02;;;;;;;1.33;0.70;;;;;;;6.23;67.85;95406.03;5076879;28;20040;-74
2021/03/13 07:26:43;;;;;;;2.10;0.88;;;;;;;6.26;65.51;95404.81;5077210;28;20040;-74
2021/03/13 07:29:15;;;;;;;2.88;0.73;;;;;;;6.26;66.96;95428.25;5076913;28;20035;-74
2021/03/13 07:31:51;;;;;;;0.95;0.70;;;;;;;6.28;65.51;95411.41;5077363;28;20055;-74
2021/03/13 07:34:28;;;;;;;2.47;0.90;;;;;;;6.30;65.42;95417.19;5077001;28;20035;-74
2021/03/13 07:36:58;;;;;;;3.00;0.93;;;;;;;6.34;66.43;95408.94;5076989;28;20047;-74
2021/03/13 07:39:33;;;;;;;1.45;0.60;;;;;;;6.42;65.53;95409.44;5076849;28;20381;-74
2021/03/13 07:42:05;;;;;;;;;;;;;;;6.45;62.75;95403.00;5077605;28;20032;-74
2021/03/13 07:44:31;;;;;;;1.52;0.90;;;;;;;6.48;66.25;95423.41;5065746;28;19969;-74
2021/03/13 07:46:58;;;;;;;1.85;0.70;;;;;;;6.50;66.38;95427.38;5074946;28;20049;-74
2021/03/13 07:49:24;;;;;;;2.08;0.70;;;;;;;6.52;65.88;95419.34;5076600;28;20032;-74
2021/03/13 07:51:51;;;;;;;3.63;0.70;;;;;;;6.54;65.54;95430.34;5076573;28;20036;-74
2021/03/13 07:54:18;;;;;;;1.10;0.68;;;;;;;6.58;65.56;95436.72;5076253;28;20036;-74
2021/03/13 07:56:45;;;;;;;2.05;0.43;;;;;;;6.61;64.88;95420.66;5076512;28;20365;-74
2021/03/13 07:59:12;;;;;;;4.43;0.57;;;;;;;6.62;64.36;95401.41;5076182;28;20387;-74
2021/03/13 08:01:46;;;;;;;1.13;0.70;;;;;;;6.70;63.23;95387.31;5076288;28;20055;-74
2021/03/13 08:04:37;;;;;;;2.65;0.60;;;;;;;6.81;61.42;95383.94;5076087;28;20036;-74
2021/03/13 08:07:04;;;;;;;3.58;0.50;;;;;;;6.88;62.41;95392.47;5076331;28;20033;-74
2021/03/13 08:09:31;;;;;;;3.85;0.73;;;;;;;7.01;62.61;95381.06;5076631;28;20051;-74
2021/03/13 08:12:01;;;;;;;2.80;0.70;;;;;;;7.24;62.57;95369.91;5076093;28;20041;-74
2021/03/13 08:14:35;;;;;;;0.98;0.70;;;;;;;7.85;57.96;95341.06;5076015;28;20041;-74
2021/03/13 08:17:11;;;;;;;2.55;0.68;;;;;;;8.54;58.73;95346.44;5076152;28;20040;-74
2021/03/13 08:19:45;;;;;;;2.15;0.70;;;;;;;9.14;59.04;95338.13;5076130;28;20040;-74
2021/03/13 08:22:22;;;;;;;3.30;0.63;;;;;;;9.34;54.08;95287.16;5076469;28;20060;-74
2021/03/13 08:24:51;;;;;;;1.33;0.57;;;;;;;9.55;56.40;95296.13;5066174;28;20036;-74
2021/03/13 08:27:38;;;;;;;2.83;0.80;;;;;;;9.68;56.42;95290.56;5075824;28;20044;-74
2021/03/13 08:30:23;;;;;;;2.20;1.02;;;;;;;9.59;51.09;95246.72;5061756;28;20039;-74
2021/03/13 08:32:58;;;;;;;4.47;1.00;;;;;;;9.68;51.93;95253.13;5075934;28;20044;-74
2021/03/13 08:35:45;;;;;;;1.50;0.85;;;;;;;9.84;50.23;95222.69;5075750;28;20047;-75
2021/03/13 08:38:15;;;;;;;2.58;0.80;;;;;;;9.82;53.99;95261.41;5074313;28;20036;-74
2021/03/13 08:40:44;;;;;;;3.05;0.80;;;;;;;9.52;53.39;95258.16;5075422;28;20040;-74
2021/03/13 08:43:33;;;;;;;3.70;0.93;;;;;;;9.41;51.03;95232.06;5075728;28;20397;-74
2021/03/13 08:45:59;;;;;;;5.97;1.00;;;;;;;9.39;53.96;95266.34;5075272;28;20340;-75
2021/03/13 08:48:55;;;;;;;1.70;0.73;;;;;;;9.34;51.18;95235.66;5075453;28;20033;-74
2021/03/13 08:51:22;;;;;;;1.35;0.80;;;;;;;9.32;53.55;95250.81;5057505;28;20045;-74
2021/03/13 08:53:49;;;;;;;2.05;0.90;;;;;;;9.33;53.71;95264.66;5075707;28;20032;-75
2021/03/13 08:56:52;;;;;;;5.60;0.80;;;;;;;9.29;51.87;95250.47;5075353;28;20040;-75
2021/03/13 08:59:19;;;;;;;1.02;0.70;;;;;;;9.21;53.59;95253.50;5033284;28;20108;-75
2021/03/13 09:02:12;;;;;;;2.83;0.80;;;;;;;9.18;50.87;95230.44;5067480;28;20048;-75
2021/03/13 09:04:41;;;;;;;2.90;1.00;;;;;;;9.12;52.88;95246.03;5075050;28;20028;-75
2021/03/13 09:07:08;;;;;;;3.22;0.85;;;;;;;9.02;52.99;95258.16;5075398;28;20032;-75
2021/03/13 09:09:37;;;;;;;2.65;0.70;;;;;;;8.84;52.33;95246.09;5074961;28;20020;-75
2021/03/13 09:12:11;;;;;;;0.95;0.60;;;;;;;8.70;51.76;95225.50;5075074;28;20411;-74
2021/03/13 09:14:42;;;;;;;1.58;0.80;;;;;;;8.63;51.88;95216.19;5062950;28;20063;-74
2021/03/13 09:17:23;;;;;;;1.80;0.70;;;;;;;8.59;52.12;95220.31;5075042;28;20040;-74
2021/03/13 09:19:51;;;;;;;2.50;0.90;;;;;;;8.57;52.89;95211.91;5075697;28;20044;-74
2021/03/13 09:22:25;;;;;;;2.55;0.73;;;;;;;8.54;52.45;95200.91;5074856;28;20063;-75
2021/03/13 09:24:57;;;;;;;5.07;0.63;;;;;;;8.57;52.14;95209.31;5074846;28;20052;-74
2021/03/13 09:27:32;;;;;;;2.25;0.65;;;;;;;8.62;51.90;95193.72;5074597;28;20048;-75
2021/03/13 09:29:59;;;;;;;3.65;1.00;;;;;;;8.64;52.76;95176.00;5075117;28;20040;-75
2021/03/13 09:32:27;;;;;;;2.70;1.20;;;;;;;8.56;52.22;95179.00;5073457;28;20055;-74
2021/03/13 09:34:55;;;;;;;3.53;0.60;;;;;;;8.56;52.53;95187.63;5074595;28;20052;-75
2021/03/13 09:37:30;;;;;;;2.95;0.80;;;;;;;8.52;51.57;95170.81;5073629;28;20472;-74
2021/03/13 09:40:02;;;;;;;2.33;0.80;;;;;;;8.48;51.49;95167.09;5074647;28;20037;-75
2021/03/13 09:42:29;;;;;;;2.92;0.73;;;;;;;8.50;52.32;95173.69;5074312;28;20032;-75
2021/03/13 09:45:00;;;;;;;0.68;0.68;;;;;;;8.54;52.00;95166.94;5074533;28;20036;-75
2021/03/13 09:47:37;;;;;;;2.42;0.52;;;;;;;8.57;51.69;95168.31;5074412;28;20056;-74
2021/03/13 09:50:08;;;;;;;1.40;0.73;;;;;;;8.60;51.94;95187.94;5074281;28;20394;-75
2021/03/13 09:52:37;;;;;;;1.48;1.05;;;;;;;8.63;52.21;95166.56;5074147;28;20033;-75
2021/03/13 09:55:06;;;;;;;1.38;0.60;;;;;;;8.69;52.02;95178.69;5074250;28;20037;-75
2021/03/13 09:57:32;;;;;;;2.55;0.70;;;;;;;8.67;52.23;95178.94;5074855;28;20040;-74
2021/03/13 10:00:03;;;;;;;1.52;0.70;;;;;;;8.67;52.36;95172.88;5073948;28;20449;-75
2021/03/13 10:02:30;;;;;;;1.63;0.73;;;;;;;8.69;52.25;95182.09;5074421;28;20388;-74
2021/03/13 10:04:56;;;;;;;2.67;0.70;;;;;;;8.65;51.96;95167.94;5073880;28;20040;-75
2021/03/13 10:07:23;;;;;;;2.85;0.70;;;;;;;8.64;52.00;95153.25;5073848;28;20419;-74
2021/03/13 10:09:57;;;;;;;3.95;0.70;;;;;;;8.63;51.98;95150.88;5073855;28;20037;-75
2021/03/13 10:12:32;;;;;;;1.92;0.65;;;;;;;8.66;52.03;95145.97;5073924;28;20028;-74
2021/03/13 10:15:21;;;;;;;2.10;0.50;;;;;;;8.68;51.47;95124.84;5073774;28;20037;-74
2021/03/13 10:18:06;;;;;;;2.22;0.90;;;;;;;8.70;51.85;95152.31;5073382;28;20036;-75
2021/03/13 10:20:39;;;;;;;0.63;0.50;;;;;;;8.65;51.57;95131.34;5074191;28;20040;-75
2021/03/13 10:23:11;;;;;;;3.03;0.93;;;;;;;8.66;51.96;95132.13;5074081;28;20408;-75
2021/03/13 10:25:40;;;;;;;0.68;0.40;;;;;;;8.66;51.74;95143.34;5073636;28;20473;-74
2021/03/13 10:28:08;;;;;;;1.58;0.65;;;;;;;8.70;52.17;95141.84;5073548;28;20040;-75
2021/03/13 10:30:40;;;;;;;1.17;0.65;;;;;;;8.73;51.83;95145.81;5073178;28;20052;-74
2021/03/13 10:33:07;;;;;;;3.00;0.63;;;;;;;8.78;51.79;95138.06;5073635;28;20373;-75
2021/03/13 10:35:34;;;;;;;3.13;0.43;;;;;;;8.79;51.75;95126.56;5073698;28;20033;-75
2021/03/13 10:38:22;;;;;;;0.98;0.45;;;;;;;8.81;51.93;95137.56;5073650;28;20051;-75
2021/03/13 10:40:51;;;;;;;2.72;0.70;;;;;;;8.79;51.58;95126.56;5061434;28;20048;-75
2021/03/13 10:43:24;;;;;;;1.63;1.10;;;;;;;8.82;51.20;95127.91;5073662;28;20044;-74
2021/03/13 10:45:57;;;;;;;2.83;0.80;;;;;;;8.84;51.22;95099.69;5073544;28;20029;-75
2021/03/13 10:48:32;;;;;;;1.48;0.60;;;;;;;8.87;51.27;95107.09;5073241;28;20040;-74
2021/03/13 10:50:59;;;;;;;1.35;0.47;;;;;;;8.87;51.32;95101.84;5073101;28;20036;-75
2021/03/13 10:53:28;;;;;;;2.25;0.60;;;;;;;8.92;51.29;95104.53;5073374;28;20032;-75
2021/03/13 10:55:56;;;;;;;2.92;0.60;;;;;;;8.99;51.47;95088.66;5073113;28;20067;-75
2021/03/13 10:58:27;;;;;;;1.48;0.50;;;;;;;9.02;50.57;95096.03;5072962;28;20032;-75
2021/03/13 11:00:57;;;;;;;5.38;0.63;;;;;;;9.00;49.84;95071.97;5073467;28;20039;-74
2021/03/13 11:03:24;;;;;;;1.35;0.73;;;;;;;9.02;50.93;95075.91;5072992;28;20033;-74
2021/03/13 11:05:51;;;;;;;0.98;0.70;;;;;;;9.04;50.81;95075.69;5072908;28;20032;-75
2021/03/13 11:08:25;;;;;;;0.95;0.50;;;;;;;9.01;50.16;95052.63;5073063;28;20036;-75
2021/03/13 11:10:53;;;;;;;;;;;;;;;9.01;50.10;95063.88;5073721;28;20496;-75
2021/03/13 11:13:20;;;;;;;1.75;0.80;;;;;;;9.00;50.04;95061.50;5073033;28;19935;-74
2021/03/13 11:15:47;;;;;;;1.85;0.80;;;;;;;9.00;50.22;95075.38;5073127;28;20037;-75
2021/03/13 11:18:13;;;;;;;1.40;0.68;;;;;;;9.02;50.29;95088.19;5072516;28;20032;-74
2021/03/13 11:20:41;;;;;;;1.23;0.50;;;;;;;9.07;50.43;95077.78;5073348;28;20055;-74
2021/03/13 11:23:07;;;;;;;1.67;0.50;;;;;;;9.10;49.79;95048.56;5072953;28;20060;-75
2021/03/13 11:25:34;;;;;;;3.25;0.70;;;;;;;9.08;49.88;95069.72;5072732;28;20051;-74
2021/03/13 11:28:00;;;;;;;1.88;0.60;;;;;;;9.10;50.03;95061.63;5072390;28;20047;-75
2021/03/13 11:30:26;;;;;;;1.35;0.57;;;;;;;9.10;49.98;95065.03;5072288;28;20056;-75
2021/03/13 11:32:53;;;;;;;1.05;0.68;;;;;;;9.10;49.80;95051.19;5072671;28;20056;-75
2021/03/13 11:35:20;;;;;;;1.75;0.57;;;;;;;9.12;49.66;95051.72;5072966;28;20037;-75
2021/03/13 11:37:47;;;;;;;0.75;0.60;;;;;;;9.17;49.73;95046.53;5073064;28;20044;-74
2021/03/13 11:40:14;;;;;;;2.33;0.60;;;;;;;9.22;49.67;95048.44;5072813;28;20043;-75
2021/03/13 11:42:41;;;;;;;0.85;0.60;;;;;;;9.24;49.22;95036.72;5072790;28;20036;-74
2021/03/13 11:45:10;;;;;;;1.45;0.47;;;;;;;9.31;49.31;95041.75;5072539;28;20039;-75
2021/03/13 11:47:37;;;;;;;0.75;0.60;;;;;;;9.35;48.77;95045.47;5072695;28;20048;-75
2021/03/13 11:50:06;;;;;;;2.15;0.60;;;;;;;9.35;48.66;95032.38;5072065;28;20055;-75
2021/03/13 11:52:33;;;;;;;1.42;0.65;;;;;;;9.32;48.76;95046.75;5072253;28;20044;-74
2021/03/13 11:54:59;;;;;;;2.40;0.60;;;;;;;9.31;48.84;95045.16;5072539;28;20028;-74
2021/03/13 11:57:25;;;;;;;1.98;0.60;;;;;;;9.31;48.89;95060.84;5072840;28;20385;-75